Time;durP1;ratioP1;P1;durP2;ratioP2;P2;SDS_P1;SDS_P2;PMS_P1;PMS_P2;Temp;Humidity;BMP_temperature;BMP_pressure;BME280_temperature;BME280_humidity;BME280_pressure;Samples;Min_cycle;Max_cycle;Signal;HPM_P1;HPM_P2
2022/01/19 00:01:19;;;;;;;;;;;;;;;5.30;100.00;100279.13;5071659;28;19997;-75
2022/01/19 00:03:46;;;;;;;;;;;;;;;5.34;100.00;100271.72;5072726;28;20268;-75
2022/01/19 00:06:14;;;;;;;;;;;;;;;5.22;100.00;100260.72;5075772;28;19929;-75
2022/01/19 00:08:41;;;;;;;;;;;;;;;5.21;100.00;100261.88;5076593;28;20345;-75
2022/01/19 00:11:08;;;;;;;;;;;;;;;5.30;100.00;100259.72;5075102;28;19928;-75
2022/01/19 00:13:35;;;;;;;;;;;;;;;5.37;100.00;100254.34;5075261;28;19925;-75
2022/01/19 00:16:02;;;;;;;;;;;;;;;5.29;100.00;100258.13;5075246;28;20295;-75
2022/01/19 00:18:31;;;;;;;;;;;;;;;5.21;100.00;100242.47;5075583;28;20050;-75
2022/01/19 00:20:58;;;;;;;;;;;;;;;5.19;100.00;100250.38;5058742;28;20372;-75
2022/01/19 00:23:25;;;;;;;;;;;;;;;5.32;100.00;100240.78;5076414;28;19954;-75
2022/01/19 00:25:54;;;;;;;;;;;;;;;5.49;100.00;100234.84;5075077;28;20418;-75
2022/01/19 00:28:22;;;;;;;;;;;;;;;5.37;100.00;100234.94;5075333;28;19932;-75
2022/01/19 00:30:49;;;;;;;;;;;;;;;5.41;100.00;100229.47;5091617;28;20003;-75
2022/01/19 00:33:19;;;;;;;;;;;;;;;5.43;100.00;100227.16;5058681;28;20449;-75
2022/01/19 00:35:47;;;;;;;;;;;;;;;5.51;100.00;100232.47;5075148;28;19924;-75
2022/01/19 00:38:15;;;;;;;;;;;;;;;5.48;100.00;100237.97;5074759;28;20006;-74
2022/01/19 00:40:42;;;;;;;;;;;;;;;5.63;100.00;100243.44;5074630;28;20002;-75
2022/01/19 00:43:11;;;;;;;;;;;;;;;5.48;100.00;100233.22;5074975;28;20391;-75
2022/01/19 00:45:39;;;;;;;;;;;;;;;5.43;100.00;100236.28;5075903;28;20399;-75
2022/01/19 00:48:17;;;;;;;;;;;;;;;5.36;100.00;100241.66;5075954;28;19932;-75
2022/01/19 00:50:44;;;;;;;;;;;;;;;5.34;100.00;100224.59;5074907;28;19973;-75
2022/01/19 00:53:12;;;;;;;;;;;;;;;5.27;100.00;100221.63;5057869;28;20379;-75
2022/01/19 00:55:39;;;;;;;;;;;;;;;5.28;100.00;100209.41;5074360;28;19924;-75
2022/01/19 00:58:06;;;;;;;;;;;;;;;5.34;100.00;100193.28;5057853;28;19924;-75
2022/01/19 01:00:34;;;;;;;;;;;;;;;5.36;100.00;100191.75;5074808;28;19925;-75
2022/01/19 01:03:02;;;;;;;;;;;;;;;5.45;100.00;100195.13;5074327;28;19974;-75
2022/01/19 01:05:30;;;;;;;;;;;;;;;5.49;100.00;100184.94;5074429;28;20019;-75
2022/01/19 01:07:57;;;;;;;;;;;;;;;5.51;100.00;100171.50;5074255;28;19925;-75
2022/01/19 01:10:24;;;;;;;;;;;;;;;5.60;100.00;100174.84;5074416;28;20407;-75
2022/01/19 01:12:54;;;;;;;;;;;;;;;5.90;100.00;100182.63;5074326;28;19978;-75
2022/01/19 01:15:28;;;;;;;;;;;;;;;6.17;100.00;100184.34;5074168;28;19924;-76
2022/01/19 01:20:33;;;;;;;;;;;;;;;6.30;100.00;100191.38;5075421;28;20319;-76
2022/01/19 01:23:00;;;;;;;;;;;;;;;6.41;100.00;100176.50;5074048;28;19932;-76
2022/01/19 01:25:27;;;;;;;;;;;;;;;6.54;100.00;100175.13;5073977;28;19995;-75
2022/01/19 01:27:54;;;;;;;;;;;;;;;6.46;100.00;100181.75;5073965;28;19925;-76
2022/01/19 01:30:21;;;;;;;;;;;;;;;6.48;100.00;100181.38;5090618;28;19924;-76
2022/01/19 01:32:48;;;;;;;;;;;;;;;6.43;100.00;100156.69;5074065;28;19924;-76
2022/01/19 01:35:16;;;;;;;;;;;;;;;6.49;100.00;100142.16;5073908;28;19924;-75
2022/01/19 01:37:43;;;;;;;;;;;;;;;6.50;100.00;100131.81;5073708;28;19956;-76
2022/01/19 01:40:13;;;;;;;;;;;;;;;6.39;100.00;100116.97;5090801;28;20205;-75
2022/01/19 01:42:44;;;;;;;;;;;;;;;6.36;100.00;100101.06;5073716;28;19931;-76
2022/01/19 01:45:17;;;;;;;;;;;;;;;6.17;100.00;100092.78;5073800;28;19928;-76
2022/01/19 01:47:50;;;;;;;;;;;;;;;6.15;100.00;100098.69;5073730;28;19998;-76
2022/01/19 01:53:26;;;;;;;;;;;;;;;6.31;100.00;100093.84;5073462;28;19925;-75
2022/01/19 01:55:55;;;;;;;;;;;;;;;6.36;100.00;100101.06;5056773;28;19932;-76
2022/01/19 01:58:22;;;;;;;;;;;;;;;6.58;100.00;100103.00;5040287;28;19925;-76
2022/01/19 02:01:09;;;;;;;;;;;;;;;6.58;100.00;100108.56;5073374;28;19925;-75
2022/01/19 02:03:39;;;;;;;;;;;;;;;6.62;100.00;100113.00;5090205;28;19925;-75
2022/01/19 02:08:55;;;;;;;;;;;;;;;6.74;100.00;100096.13;5056950;28;19961;-76
2022/01/19 02:21:38;;;;;;;;;;;;;;;6.41;100.00;100071.00;5073096;28;20011;-76
2022/01/19 02:22:32;;;;;;;;;;;;;;;6.43;100.00;100065.06;5055977;28;19931;-76
2022/01/19 02:25:00;;;;;;;;;;;;;;;6.28;100.00;100057.69;5056799;28;19932;-76
2022/01/19 02:41:16;;;;;;;;;;;;;;;6.04;100.00;100010.91;5074072;28;19928;-76
2022/01/19 02:43:49;;;;;;;;;;;;;;;6.22;100.00;100000.91;5039107;28;19963;-76
2022/01/19 02:49:17;;;;;;;;;;;;;;;6.53;100.00;99975.59;5055874;28;20380;-76
2022/01/19 02:51:46;;;;;;;;;;;;;;;6.60;100.00;99970.16;5055567;28;19924;-76
2022/01/19 02:54:14;;;;;;;;;;;;;;;6.65;100.00;99978.94;5055545;28;20375;-76
2022/01/19 02:56:45;;;;;;;;;;;;;;;6.82;100.00;99958.13;5072234;28;19978;-76
2022/01/19 03:10:21;;;;;;;;;;;;;;;6.75;100.00;99916.41;5034405;28;20359;-76
2022/01/19 03:12:49;;;;;;;;;;;;;;;6.80;100.00;99916.06;5034439;28;20023;-76
2022/01/19 03:15:16;;;;;;;;;;;;;;;6.90;100.00;99898.72;5034476;28;19925;-76
2022/01/19 03:17:43;;;;;;;;;;;;;;;6.95;100.00;99881.72;5050738;28;20023;-76
2022/01/19 03:20:10;;;;;;;;;;;;;;;6.96;100.00;99886.09;5017540;28;20370;-76
2022/01/19 03:22:45;;;;;;;;;;;;;;;6.77;100.00;99872.38;5034334;28;19925;-76
2022/01/19 03:25:13;;;;;;;;;;;;;;;6.89;100.00;99880.47;5034267;28;19925;-76
2022/01/19 03:27:45;;;;;;;;;;;;;;;6.94;100.00;99878.13;5017740;28;19929;-76
2022/01/19 03:30:14;;;;;;;;;;;;;;;6.73;100.00;99879.84;5017655;28;20299;-76
2022/01/19 03:32:41;;;;;;;;;;;;;;;6.89;100.00;99874.91;5017891;28;19928;-76
2022/01/19 03:35:09;;;;;;;;;;;;;;;6.97;100.00;99873.78;5033917;28;19932;-76
2022/01/19 03:37:36;;;;;;;;;;;;;;;7.00;100.00;99875.81;5050631;28;19925;-76
2022/01/19 03:40:04;;;;;;;;;;;;;;;7.06;100.00;99879.84;5036086;28;20287;-75
2022/01/19 03:42:32;;;;;;;;;;;;;;;6.93;100.00;99864.63;5071800;28;19931;-76
2022/01/19 03:44:59;;;;;;;;;;;;;;;6.87;100.00;99860.59;5071855;28;19929;-75
2022/01/19 03:47:27;;;;;;;;;;;;;;;6.81;100.00;99862.09;5071531;28;20380;-75
2022/01/19 03:49:54;;;;;;;;;;;;;;;6.82;100.00;99849.81;5071593;28;19935;-75
2022/01/19 03:52:21;;;;;;;;;;;;;;;6.81;100.00;99845.44;5055142;28;19925;-75
2022/01/19 03:54:50;;;;;;;;;;;;;;;6.83;100.00;99832.75;5055108;28;20044;-76
2022/01/19 03:57:17;;;;;;;;;;;;;;;6.89;100.00;99816.56;5038386;28;19931;-75
2022/01/19 03:59:44;;;;;;;;;;;;;;;6.89;100.00;99834.00;5071679;28;19964;-76
2022/01/19 04:02:11;;;;;;;;;;;;;;;6.89;100.00;99830.44;5071366;28;20018;-76
2022/01/19 04:07:17;;;;;;;;;;;;;;;7.13;100.00;99841.03;5071775;28;19924;-76
2022/01/19 04:09:47;;;;;;;;;;;;;;;7.07;100.00;99831.44;5071596;28;19924;-76
2022/01/19 04:12:19;;;;;;;;;;;;;;;7.05;100.00;99829.03;5038170;28;19924;-76
2022/01/19 04:14:46;;;;;;;;;;;;;;;7.06;100.00;99818.69;5071560;28;20331;-75
2022/01/19 04:17:14;;;;;;;;;;;;;;;7.03;100.00;99841.69;5071280;28;19946;-75
2022/01/19 04:19:45;;;;;;;;;;;;;;;7.03;100.00;99825.84;5054751;28;19929;-75
2022/01/19 04:22:18;;;;;;;;;;;;;;;7.01;100.00;99832.97;5071470;28;19924;-75
2022/01/19 04:24:46;;;;;;;;;;;;;;;7.06;100.00;99829.81;5071457;28;19928;-75
2022/01/19 04:30:09;;;;;;;;;;;;;;;7.09;100.00;99817.94;5071191;28;20023;-76
2022/01/19 04:35:28;;;;;;;;;;;;;;;7.13;100.00;99810.44;5054547;28;19924;-75
2022/01/19 04:38:26;;;;;;;;;;;;;;;7.08;100.00;99810.78;5054592;28;20368;-75
2022/01/19 05:07:06;;;;;;;;;;;;;;;7.09;100.00;99799.28;4992991;28;20011;-75
2022/01/19 05:15:06;;;;;;;;;;;;;;;7.31;100.00;99783.59;4958050;28;19933;-75
2022/01/19 05:17:38;;;;;;;;;;;;;;;7.34;100.00;99780.88;4974131;28;19933;-75
2022/01/19 05:20:07;;;;;;;;;;;;;;;7.30;100.00;99790.34;4974450;28;19962;-75
2022/01/19 05:22:34;;;;;;;;;;;;;;;7.38;100.00;99780.88;4977596;28;19925;-75
2022/01/19 05:25:08;;;;;;;;;;;;;;;7.42;100.00;99770.59;4993730;28;19933;-75
2022/01/19 05:27:58;;;;;;;;;;;;;;;7.46;100.00;99771.41;4993703;28;20384;-75
2022/01/19 05:30:25;;;;;;;;;;;;;;;7.58;100.00;99779.44;4995067;28;19932;-75
2022/01/19 05:32:54;;;;;;;;;;;;;;;7.59;100.00;99769.91;4977506;28;19957;-76
2022/01/19 05:35:21;;;;;;;;;;;;;;;7.58;100.00;99773.06;4961139;28;19934;-75
2022/01/19 05:38:04;;;;;;;;;;;;;;;7.60;100.00;99774.31;4993398;28;19926;-75
2022/01/19 05:40:31;;;;;;;;;;;;;;;7.62;100.00;99773.91;4977476;28;19932;-75
2022/01/19 05:42:59;;;;;;;;;;;;;;;7.79;100.00;99781.56;4961429;28;19930;-75
2022/01/19 05:45:27;;;;;;;;;;;;;;;7.86;100.00;99771.28;4976860;28;19926;-75
2022/01/19 05:47:59;;;;;;;;;;;;;;;7.82;100.00;99761.31;4977240;28;19925;-75
2022/01/19 05:50:27;;;;;;;;;;;;;;;7.82;100.00;99756.56;4984680;28;19932;-75
2022/01/19 05:53:04;;;;;;;;;;;;;;;8.00;100.00;99757.44;5038620;28;20364;-75
2022/01/19 05:55:31;;;;;;;;;;;;;;;8.04;100.00;99766.59;5053730;28;19928;-75
2022/01/19 05:57:59;;;;;;;;;;;;;;;8.12;100.00;99754.31;5036689;28;20392;-76
2022/01/19 06:00:27;;;;;;;;;;;;;;;8.09;100.00;99766.25;5037107;28;19924;-76
2022/01/19 06:02:54;;;;;;;;;;;;;;;8.12;100.00;99759.91;5020453;28;19931;-75
2022/01/19 06:05:33;;;;;;;;;;;;;;;8.03;100.00;99767.81;5053610;28;20287;-75
2022/01/19 06:10:55;;;;;;;;;;;;;;;8.23;100.00;99759.97;5036754;28;19932;-75
2022/01/19 06:13:23;;;;;;;;;;;;;;;8.22;100.00;99764.75;5052814;28;20395;-75
2022/01/19 06:15:50;;;;;;;;;;;;;;;8.15;100.00;99750.75;5053130;28;19992;-75
2022/01/19 06:18:18;;;;;;;;;;;;;;;8.30;100.00;99738.53;5036440;28;20019;-75
2022/01/19 06:20:45;;;;;;;;;;;;;;;8.36;100.00;99736.94;5036437;28;20407;-75
2022/01/19 06:23:16;;;;;;;;;;;;;;;8.29;100.00;99727.78;5053166;28;20403;-75
2022/01/19 06:26:04;;;;;;;;;;;;;;;8.43;100.00;99714.72;5039392;28;19925;-75
2022/01/19 06:28:31;;;;;;;;;;;;;;;8.52;100.00;99712.34;5052646;28;19928;-75
2022/01/19 06:30:58;;;;;;;;;;;;;;;8.39;100.00;99697.19;5041356;28;20291;-76
2022/01/19 06:33:25;;;;;;;;;;;;;;;8.41;100.00;99694.81;5039645;28;20027;-75
2022/01/19 06:35:54;;;;;;;;;;;;;;;8.61;100.00;99681.31;5039408;28;19931;-75
2022/01/19 06:38:33;;;;;;;;;;;;;;;8.51;100.00;99688.47;5056012;28;19925;-75
2022/01/19 06:41:06;;;;;;;;;;;;;;;8.32;100.00;99668.53;5056351;28;19935;-75
2022/01/19 06:43:40;;;;;;;;;;;;;;;8.34;100.00;99666.16;5039245;28;19925;-79
2022/01/19 06:46:08;;;;;;;;;;;;;;;8.13;100.00;99666.88;5020234;28;19929;-79
2022/01/19 06:48:35;;;;;;;;;;;;;;;8.23;100.00;99670.88;5036596;28;20336;-75
2022/01/19 06:51:10;;;;;;;;;;;;;;;8.22;100.00;99663.69;5021179;28;19975;-75
2022/01/19 06:53:45;;;;;;;;;;;;;;;8.20;100.00;99655.75;5020164;28;20019;-75
2022/01/19 06:56:16;;;;;;;;;;;;;;;8.15;100.00;99661.69;5035715;28;20292;-76
2022/01/19 06:58:44;;;;;;;;;;;;;;;8.13;100.00;99654.94;5021800;28;19932;-76
2022/01/19 07:01:33;;;;;;;;;;;;;;;8.14;100.00;99639.81;5031570;28;20382;-76
2022/01/19 07:04:26;;;;;;;;;;;;;;;8.02;100.00;99638.19;5045461;28;19944;-76
2022/01/19 07:06:53;;;;;;;;;;;;;;;8.15;100.00;99636.63;5028549;28;20019;-76
2022/01/19 07:09:29;;;;;;;;;;;;;;;8.16;100.00;99654.94;5045441;28;19925;-76
2022/01/19 07:11:59;;;;;;;;;;;;;;;8.09;100.00;99649.34;5045335;28;19931;-76
2022/01/19 07:14:26;;;;;;;;;;;;;;;8.07;100.00;99662.06;5041364;28;20327;-76
2022/01/19 07:16:57;;;;;;;;;;;;;;;8.16;100.00;99666.09;5033240;28;20024;-76
2022/01/19 07:19:24;;;;;;;;;;;;;;;8.03;100.00;99667.63;5044698;28;19929;-76
2022/01/19 07:21:51;;;;;;;;;;;;;;;8.08;100.00;99685.91;5028562;28;19925;-76
2022/01/19 07:24:18;;;;;;;;;;;;;;;8.22;100.00;99692.38;5056010;28;19970;-76
2022/01/19 07:26:45;;;;;;;;;;;;;;;8.18;100.00;99688.75;5036329;28;19933;-76
2022/01/19 07:29:15;;;;;;;;;;;;;;;8.22;100.00;99681.25;5045018;28;20383;-76
2022/01/19 07:31:50;;;;;;;;;;;;;;;8.22;100.00;99677.63;5054488;28;19971;-76
2022/01/19 07:34:21;;;;;;;;;;;;;;;8.09;100.00;99668.81;5072152;28;20029;-76
2022/01/19 07:36:48;;;;;;;;;;;;;;;8.06;100.00;99666.81;5055920;28;20015;-76
2022/01/19 07:39:15;;;;;;;;;;;;;;;8.11;100.00;99683.16;5072389;28;20021;-76
2022/01/19 07:41:42;;;;;;;;;;;;;;;8.24;100.00;99683.63;5072566;28;19936;-76
2022/01/19 07:44:42;;;;;;;;;;;;;;;8.39;100.00;99686.03;5061751;28;19929;-76
2022/01/19 07:47:47;;;;;;;;;;;;;;;8.48;100.00;99678.09;5037194;28;19925;-76
2022/01/19 07:50:40;;;;;;;;;;;;;;;8.62;100.00;99694.84;5026166;28;19925;-76
2022/01/19 07:53:27;;;;;;;;;;;;;;;8.72;100.00;99705.22;5067667;28;19925;-76
2022/01/19 07:56:13;;;;;;;;;;;;;;;8.64;100.00;99692.47;5050912;28;19932;-76
2022/01/19 07:59:03;;;;;;;;;;;;;;;8.61;100.00;99682.13;5056188;28;19932;-76
2022/01/19 08:01:47;;;;;;;;;;;;;;;8.60;100.00;99668.59;5064307;28;19948;-76
2022/01/19 08:04:37;;;;;;;;;;;;;;;8.64;100.00;99675.75;5033438;28;20023;-76
2022/01/19 08:07:04;;;;;;;;;;;;;;;8.60;100.00;99663.81;5000889;28;19948;-74
2022/01/19 08:09:31;;;;;;;;;;;;;;;8.44;100.00;99666.16;5033350;28;20040;-74
2022/01/19 08:11:58;;;;;;;;;;;;;;;8.48;100.00;99674.53;5033840;28;19924;-75
2022/01/19 08:14:29;;;;;;;;;;;;;;;8.41;100.00;99666.97;5034134;28;19964;-75
2022/01/19 08:16:57;;;;;;;;;;;;;;;8.40;100.00;99665.38;5033718;28;19925;-75
2022/01/19 08:19:28;;;;;;;;;;;;;;;8.51;100.00;99660.59;5002062;28;20324;-75
2022/01/19 08:21:56;;;;;;;;;;;;;;;8.44;100.00;99662.59;5051399;28;19947;-75
2022/01/19 08:24:27;;;;;;;;;;;;;;;8.62;100.00;99666.19;5036193;28;20403;-75
2022/01/19 08:26:56;;;;;;;;;;;;;;;8.43;100.00;99664.59;5052300;28;20364;-76
2022/01/19 08:29:33;;;;;;;;;;;;;;;8.42;100.00;99657.41;5038643;28;19928;-76
2022/01/19 08:32:07;;;;;;;;;;;;;;;8.33;100.00;99662.56;5054984;28;19929;-75
2022/01/19 08:35:07;;;;;;;;;;;;;;;8.22;100.00;99672.91;5055657;28;20292;-75
2022/01/19 08:37:55;;;;;;;;;;;;;;;8.37;100.00;99666.16;5056004;28;19947;-75
2022/01/19 08:40:28;;;;;;;;;;;;;;;8.26;100.00;99670.91;5054712;28;19932;-76
2022/01/19 08:43:19;;;;;;;;;;;;;;;8.36;100.00;99675.69;5054931;28;20342;-76
2022/01/19 08:45:47;;;;;;;;;;;;;;;8.30;100.00;99685.63;5054971;28;19925;-75
2022/01/19 08:48:17;;;;;;;;;;;;;;;8.19;100.00;99689.53;5038232;28;20410;-76
2022/01/19 08:50:51;;;;;;;;;;;;;;;8.24;100.00;99703.13;5072383;28;20332;-76
2022/01/19 08:53:41;;;;;;;;;;;;;;;8.31;100.00;99736.53;5046444;28;20539;-79
2022/01/19 08:56:27;;;;;;;;;;;;;;;8.28;100.00;99785.47;5078811;28;20372;-78
2022/01/19 08:58:55;;;;;;;;;;;;;;;7.76;100.00;99769.25;5050550;28;19990;-78
2022/01/19 09:01:23;;;;;;;;;;;;;;;7.81;100.00;99782.78;5069588;28;20416;-78
2022/01/19 09:03:50;;;;;;;;;;;;;;;7.73;100.00;99797.84;5073077;28;20406;-78
2022/01/19 09:06:20;;;;;;;;;;;;;;;7.71;100.00;99816.09;5071151;28;19931;-78
2022/01/19 09:08:48;;;;;;;;;;;;;;;7.65;100.00;99824.00;5070915;28;20382;-78
2022/01/19 09:11:15;;;;;;;;;;;;;;;7.69;100.00;99824.84;5072828;28;20319;-77
2022/01/19 09:13:44;;;;;;;;;;;;;;;7.62;100.00;99823.97;5072875;28;19924;-78
2022/01/19 09:16:13;;;;;;;;;;;;;;;7.77;100.00;99822.91;5072280;28;19925;-78
2022/01/19 09:18:41;;;;;;;;;;;;;;;7.63;100.00;99814.44;5071171;28;20362;-75
2022/01/19 09:21:08;;;;;;;;;;;;;;;7.56;100.00;99798.50;5072995;28;19925;-80
2022/01/19 09:23:37;;;;;;;;;;;;;;;7.60;100.00;99799.34;5071033;28;19930;-81
2022/01/19 09:26:05;;;;;;;;;;;;;;;7.71;100.00;99800.19;5054865;28;20389;-86
2022/01/19 09:28:32;;;;;;;;;;;;;;;7.64;100.00;99783.47;5071707;28;20011;-77
2022/01/19 09:31:04;;;;;;;;;;;;;;;7.63;100.00;99778.28;5070581;28;19929;-77
2022/01/19 09:33:33;;;;;;;;;;;;;;;7.70;100.00;99781.91;5038264;28;19924;-77
2022/01/19 09:38:30;;;;;;;;;;;;;;;7.59;100.00;99796.94;5036981;28;19924;-78
2022/01/19 09:40:57;;;;;;;;;;;;;;;7.69;100.00;99810.94;5054597;28;19925;-79
2022/01/19 09:43:26;;;;;;;;;;;;;;;7.52;100.00;99797.69;5072952;28;19924;-81
2022/01/19 09:45:54;;;;;;;;;;;;;;;7.47;100.00;99788.91;5072920;28;20046;-80
2022/01/19 09:48:21;;;;;;;;;;;;;;;7.46;100.00;99803.97;5009215;28;20391;-82
2022/01/19 09:50:48;;;;;;;;;;;;;;;7.43;100.00;99793.63;5043256;28;19925;-81
2022/01/19 09:53:15;;;;;;;;;;;;;;;7.49;100.00;99809.56;5059893;28;19925;-78
2022/01/19 09:55:44;;;;;;;;;;;;;;;7.46;100.00;99804.78;5039412;28;19935;-76
2022/01/19 09:58:11;;;;;;;;;;;;;;;7.45;100.00;99831.00;5058001;28;19925;-77
2022/01/19 10:00:39;;;;;;;;;;;;;;;7.30;100.00;99815.34;5051847;28;20066;-76
2022/01/19 10:03:12;;;;;;;;;;;;;;;7.44;100.00;99823.03;5050352;28;20330;-77
2022/01/19 10:05:56;;;;;;;;;;;;;;;7.64;100.00;99822.41;5033084;28;19948;-77
2022/01/19 10:08:53;;;;;;;;;;;;;;;7.59;100.00;99816.41;5049815;28;19952;-77
2022/01/19 10:17:04;;;;;;;;;;;;;;;7.50;100.00;99805.59;5033365;28;20351;-76
2022/01/19 10:19:37;;;;;;;;;;;;;;;7.41;100.00;99790.44;5051188;28;19936;-77
2022/01/19 10:22:13;;;;;;;;;;;;;;;7.34;100.00;99778.09;5050866;28;20015;-76
2022/01/19 10:24:50;;;;;;;;;;;;;;;7.52;100.00;99780.19;5018516;28;19931;-77
2022/01/19 10:29:42;;;;;;;;;;;;;;;7.38;100.00;99761.41;5033557;28;19939;-88
2022/01/19 10:32:10;;;;;;;;;;;;;;;7.54;100.00;99750.81;5012198;28;19925;-80
2022/01/19 10:34:37;;;;;;;;;;;;;;;7.58;100.00;99785.00;5036269;28;19985;-75
2022/01/19 10:37:05;;;;;;;;;;;;;;;7.35;100.00;99781.66;5053845;28;19925;-77
2022/01/19 10:39:42;;;;;;;;;;;;;;;7.60;100.00;99788.22;5070827;28;19929;-78
2022/01/19 10:42:11;;;;;;;;;;;;;;;7.49;100.00;99815.13;5070633;28;20350;-74
2022/01/19 10:44:40;;;;;;;;;;;;;;;7.38;100.00;99817.81;5052484;28;19924;-75
2022/01/19 10:47:41;;;;;;;;;;;;;;;7.17;100.00;99808.50;5070546;28;20563;-73
2022/01/19 10:50:09;;;;;;;;;;;;;;;7.35;100.00;99799.13;5057469;28;19936;-74
2022/01/19 10:52:39;;;;;;;;;;;;;;;7.29;100.00;99784.00;5031986;28;20069;-74
2022/01/19 10:55:08;;;;;;;;;;;;;;;7.16;100.00;99762.44;5029699;28;19925;-74
2022/01/19 10:57:37;;;;;;;;;;;;;;;7.20;100.00;99763.25;5049751;28;20020;-74
2022/01/19 11:00:22;;;;;;;;;;;;;;;7.15;100.00;99760.81;5050167;28;19956;-74
2022/01/19 11:02:50;;;;;;;;;;;;;;;7.19;100.00;99768.00;5050704;28;19982;-73
2022/01/19 11:05:37;;;;;;;;;;;;;;;7.29;100.00;99784.00;5029540;28;20349;-74
2022/01/19 11:08:04;;;;;;;;;;;;;;;7.34;100.00;99769.75;5043272;28;20411;-74
2022/01/19 11:10:32;;;;;;;;;;;;;;;7.41;100.00;99768.97;5049191;28;20296;-74
2022/01/19 11:12:59;;;;;;;;;;;;;;;7.38;100.00;99757.84;5050211;28;19924;-73
2022/01/19 11:15:26;;;;;;;;;;;;;;;7.26;100.00;99772.84;5050467;28;20715;-74
2022/01/19 11:17:54;;;;;;;;;;;;;;;7.32;100.00;99794.34;5031927;28;19928;-74
2022/01/19 11:20:24;;;;;;;;;;;;;;;7.39;100.00;99783.28;5050757;28;19925;-80
2022/01/19 11:23:15;;;;;;;;;;;;;;;7.22;100.00;99772.03;5050752;28;19933;-75
2022/01/19 11:25:53;;;;;;;;;;;;;;;7.47;100.00;99770.22;5049905;28;19929;-75
2022/01/19 11:28:26;;;;;;;;;;;;;;;7.43;100.00;99772.19;5049253;28;19929;-75
2022/01/19 11:30:54;;;;;;;;;;;;;;;7.47;100.00;99791.69;5051241;28;19925;-74
2022/01/19 11:33:26;;;;;;;;;;;;;;;7.24;100.00;99783.53;5056790;28;19924;-74
2022/01/19 11:35:55;;;;;;;;;;;;;;;7.31;100.00;99787.16;5040533;28;19929;-74
2022/01/19 11:38:39;;;;;;;;;;;;;;;7.30;100.00;99807.00;5023586;28;20018;-75
2022/01/19 11:41:09;;;;;;;;;;;;;;;7.26;100.00;99790.31;5057080;28;19925;-74
2022/01/19 11:43:37;;;;;;;;;;;;;;;7.25;100.00;99793.50;5057995;28;19971;-74
2022/01/19 11:46:05;;;;;;;;;;;;;;;7.38;100.00;99809.50;5055168;28;19929;-74
2022/01/19 11:48:35;;;;;;;;;;;;;;;7.66;100.00;99820.03;5011868;28;19929;-79
2022/01/19 11:51:20;;;;;;;;;;;;;;;7.55;100.00;99857.28;5029925;28;20272;-78
2022/01/19 11:54:00;;;;;;;;;;;;;;;7.48;100.00;99841.34;5030125;28;19925;-76
2022/01/19 11:56:27;;;;;;;;;;;;;;;7.41;100.00;99832.16;5029623;28;20020;-74
2022/01/19 11:59:07;;;;;;;;;;;;;;;7.34;100.00;99821.75;5029650;28;19932;-75
2022/01/19 12:01:36;;;;;;;;;;;;;;;7.21;100.00;99817.66;5030285;28;19968;-77
2022/01/19 12:04:13;;;;;;;;;;;;;;;7.23;100.00;99823.63;4984129;28;19948;-74
2022/01/19 12:06:42;;;;;;;;;;;;;;;7.46;100.00;99821.47;5034413;28;19933;-73
2022/01/19 12:09:12;;;;;;;;;;;;;;;7.39;100.00;99813.06;5050290;28;20019;-73
2022/01/19 12:11:46;;;;;;;;;;;;;;;7.56;100.00;99828.31;5064509;28;19932;-73
2022/01/19 12:14:18;;;;;;;;;;;;;;;7.48;100.00;99826.66;5043196;28;19925;-73
2022/01/19 12:17:01;;;;;;;;;;;;;;;7.67;100.00;99848.63;5040796;28;19928;-74
2022/01/19 12:19:30;;;;;;;;;;;;;;;7.42;100.00;99858.78;5058736;28;20073;-73
2022/01/19 12:22:05;;;;;;;;;;;;;;;7.26;100.00;99876.50;5077210;28;19931;-74
2022/01/19 12:24:41;;;;;;;;;;;;;;;7.31;100.00;99856.66;5077269;28;19928;-73
2022/01/19 12:27:15;;;;;;;;;;;;;;;7.83;100.00;99855.53;5076733;28;19924;-74
2022/01/19 12:29:42;;;;;;;;;;;;;;;7.70;100.00;99848.69;5059354;28;19924;-74
2022/01/19 12:32:15;;;;;;;;;;;;;;;7.38;100.00;99850.38;5076693;28;19924;-74
2022/01/19 12:34:46;;;;;;;;;;;;;;;7.59;100.00;99864.47;5076181;28;19932;-73
2022/01/19 12:37:34;;;;;;;;;;;;;;;7.69;100.00;99846.28;5076372;28;19928;-74
2022/01/19 12:40:06;;;;;;;;;;;;;;;7.70;100.00;99845.09;5058424;28;19970;-74
2022/01/19 12:42:41;;;;;;;;;;;;;;;7.70;100.00;99820.84;5075924;28;19931;-74
2022/01/19 12:45:17;;;;;;;;;;;;;;;7.61;100.00;99825.97;5076436;28;20373;-74
2022/01/19 12:47:46;;;;;;;;;;;;;;;7.84;100.00;99829.31;5058630;28;20388;-74
2022/01/19 12:50:13;;;;;;;;;;;;;;;7.62;100.00;99830.31;5041712;28;20014;-74
2022/01/19 12:52:42;;;;;;;;;;;;;;;7.80;100.00;99841.59;5075907;28;20295;-73
2022/01/19 12:55:11;;;;;;;;;;;;;;;7.94;100.00;99861.97;5041248;28;20009;-74
2022/01/19 12:57:39;;;;;;;;;;;;;;;7.92;100.00;99853.19;5075755;28;19965;-74
2022/01/19 13:00:08;;;;;;;;;;;;;;;7.90;100.00;99880.63;5041327;28;20016;-73
2022/01/19 13:02:36;;;;;;;;;;;;;;;7.67;100.00;99843.88;5075702;28;19924;-73
2022/01/19 13:05:07;;;;;;;;;;;;;;;7.80;100.00;99836.81;5058146;28;19925;-74
2022/01/19 13:07:38;;;;;;;;;;;;;;;7.93;100.00;99843.69;5075678;28;20337;-74
2022/01/19 13:10:25;;;;;;;;;;;;;;;7.62;100.00;99869.25;5041038;28;19925;-74
2022/01/19 13:15:42;;;;;;;;;;;;;;;7.72;100.00;99854.66;5057676;28;20375;-74
2022/01/19 13:18:10;;;;;;;;;;;;;;;7.62;100.00;99847.00;5041133;28;19931;-74
2022/01/19 13:20:47;;;;;;;;;;;;;;;7.55;100.00;99852.53;5057422;28;19975;-74
2022/01/19 13:23:14;;;;;;;;;;;;;;;7.62;100.00;99849.78;5024754;28;20010;-74
2022/01/19 13:25:41;;;;;;;;;;;;;;;7.87;100.00;99880.59;5057414;28;19963;-74
2022/01/19 13:28:08;;;;;;;;;;;;;;;7.79;100.00;99879.75;5075205;28;19978;-74
2022/01/19 13:30:35;;;;;;;;;;;;;;;7.56;100.00;99886.72;5057377;28;19932;-73
2022/01/19 13:33:10;;;;;;;;;;;;;;;7.85;100.00;99911.59;5023248;28;20364;-74
2022/01/19 13:35:38;;;;;;;;;;;;;;;7.90;100.00;99913.22;5069514;28;19924;-74
2022/01/19 13:38:10;;;;;;;;;;;;;;;7.63;100.00;99929.28;5110699;27;20299;-74
2022/01/19 13:40:37;;;;;;;;;;;;;;;7.58;100.00;99926.03;5074675;28;19986;-74
2022/01/19 13:43:05;;;;;;;;;;;;;;;7.71;100.00;99922.59;5088540;28;19978;-74
2022/01/19 13:50:43;;;;;;;;;;;;;;;7.51;100.00;99912.91;5054947;28;19964;-74
2022/01/19 13:53:10;;;;;;;;;;;;;;;7.35;100.00;99898.41;5075312;28;19925;-74
2022/01/19 13:55:38;;;;;;;;;;;;;;;7.30;100.00;99912.66;5075570;28;19924;-74
2022/01/19 13:58:04;;;;;;;;;;;;;;;7.24;100.00;99928.06;5073598;28;19950;-74
2022/01/19 14:00:31;;;;;;;;;;;;;;;7.18;100.00;99922.06;5075198;28;19931;-74
2022/01/19 14:03:02;;;;;;;;;;;;;;;7.29;100.00;99930.53;5073320;28;20259;-75
2022/01/19 14:05:38;;;;;;;;;;;;;;;7.23;100.00;99929.25;5074876;28;19924;-74
2022/01/19 14:08:05;;;;;;;;;;;;;;;7.17;100.00;99947.47;5071928;28;19958;-74
2022/01/19 14:10:46;;;;;;;;;;;;;;;7.35;100.00;99949.28;5079927;28;19959;-74
2022/01/19 14:13:32;;;;;;;;;;;;;;;7.94;100.00;99941.88;5094493;28;19924;-74
2022/01/19 14:16:17;;;;;;;;;;;;;;;7.45;100.00;99946.97;5095632;28;20418;-74
2022/01/19 14:19:04;;;;;;;;;;;;;;;7.49;100.00;99945.84;5095456;28;20036;-74
2022/01/19 14:21:32;;;;;;;;;;;;;;;7.32;100.00;99952.00;5095265;28;20308;-74
2022/01/19 14:23:59;;;;;;;;;;;;;;;7.32;100.00;99952.00;5094356;28;20014;-74
2022/01/19 14:26:27;;;;;;;;;;;;;;;7.36;100.00;99963.97;5095246;28;20011;-74
2022/01/19 14:29:11;;;;;;;;;;;;;;;7.66;100.00;99953.56;5094080;28;20436;-74
2022/01/19 14:31:53;;;;;;;;;;;;;;;7.98;100.00;99951.84;5093719;28;20007;-74
2022/01/19 14:34:37;;;;;;;;;;;;;;;7.64;100.00;99955.91;5093941;28;19924;-74
2022/01/19 14:37:09;;;;;;;;;;;;;;;7.39;100.00;99958.44;5093746;28;20328;-74
2022/01/19 14:39:48;;;;;;;;;;;;;;;7.47;100.00;99969.66;5093734;28;19974;-74
2022/01/19 14:42:17;;;;;;;;;;;;;;;7.43;100.00;99957.69;5093260;28;19928;-74
2022/01/19 14:44:57;;;;;;;;;;;;;;;7.42;100.00;99968.03;5069756;28;20041;-74
2022/01/19 14:47:37;;;;;;;;;;;;;;;7.42;100.00;99951.34;5087752;28;19929;-74
2022/01/19 14:50:17;;;;;;;;;;;;;;;7.35;100.00;99960.41;5075420;28;19928;-74
2022/01/19 14:52:44;;;;;;;;;;;;;;;7.31;100.00;99958.75;5107152;28;19935;-74
2022/01/19 14:55:12;;;;;;;;;;;;;;;7.44;100.00;99973.97;5073162;28;19925;-73